Time;durP1;ratioP1;P1;durP2;ratioP2;P2;SDS_P1;SDS_P2;PMS_P1;PMS_P2;Temp;Humidity;BMP_temperature;BMP_pressure;BME280_temperature;BME280_humidity;BME280_pressure;Samples;Min_cycle;Max_cycle;Signal;HPM_P1;HPM_P2
2022/08/16 00:00:43;;;;;;;3.37;1.60;;;;;;;15.39;100.00;95794.72;5044070;28;20205;-85
2022/08/16 00:03:20;;;;;;;4.40;1.20;;;;;;;15.37;100.00;95789.53;5057163;28;20226;-86
2022/08/16 00:05:57;;;;;;;1.40;1.30;;;;;;;15.38;100.00;95801.25;5038859;28;20217;-86
2022/08/16 00:08:40;;;;;;;3.40;1.30;;;;;;;15.35;100.00;95810.75;5045896;28;20216;-86
2022/08/16 00:11:20;;;;;;;4.13;1.40;;;;;;;15.36;100.00;95804.22;5035777;28;20198;-86
2022/08/16 00:14:19;;;;;;;2.97;1.50;;;;;;;15.38;100.00;95799.34;5034980;28;20201;-86
2022/08/16 00:16:51;;;;;;;3.20;1.50;;;;;;;15.39;100.00;95800.16;5043349;28;20289;-85
2022/08/16 00:22:25;;;;;;;2.80;1.40;;;;;;;15.28;100.00;95812.13;5026724;28;20201;-86
2022/08/16 00:25:11;;;;;;;1.77;1.20;;;;;;;15.13;100.00;95816.47;5041596;28;20207;-85
2022/08/16 00:28:09;;;;;;;1.47;1.30;;;;;;;15.08;100.00;95813.75;5058719;28;20289;-86
2022/08/16 00:32:55;;;;;;;3.13;1.70;;;;;;;15.01;100.00;95805.03;5073990;27;20581;-80
2022/08/16 00:35:25;;;;;;;2.03;1.60;;;;;;;15.02;100.00;95803.16;5042287;28;20210;-81
2022/08/16 00:37:54;;;;;;;2.07;1.50;;;;;;;15.03;100.00;95807.50;5036250;28;20205;-80
2022/08/16 00:40:25;;;;;;;3.10;1.60;;;;;;;15.03;100.00;95811.03;5031445;28;20233;-80
2022/08/16 00:42:52;;;;;;;2.23;1.50;;;;;;;15.00;100.00;95806.13;5037613;28;20225;-81
2022/08/16 00:45:33;;;;;;;2.83;1.43;;;;;;;15.00;100.00;95802.59;5030978;28;20195;-81
2022/08/16 00:48:05;;;;;;;2.53;1.60;;;;;;;14.96;100.00;95805.06;5033620;28;20219;-81
2022/08/16 00:50:35;;;;;;;3.17;1.50;;;;;;;14.94;100.00;95809.94;5036548;28;20227;-80
2022/08/16 00:53:02;;;;;;;1.53;1.43;;;;;;;14.91;100.00;95813.19;5030416;28;20343;-80
2022/08/16 00:55:30;;;;;;;2.57;1.57;;;;;;;14.88;100.00;95813.75;5040122;28;20223;-80
2022/08/16 00:57:58;;;;;;;3.97;1.63;;;;;;;14.91;100.00;95817.81;5037632;28;20212;-81
2022/08/16 01:00:27;;;;;;;2.83;1.60;;;;;;;14.71;100.00;95819.44;5033312;28;20276;-80
2022/08/16 01:02:57;;;;;;;3.67;1.80;;;;;;;14.68;100.00;95819.13;5031585;28;20214;-81
2022/08/16 01:05:26;;;;;;;3.77;1.70;;;;;;;14.65;100.00;95817.78;5037713;28;20203;-80
2022/08/16 01:07:54;;;;;;;4.60;1.77;;;;;;;14.71;100.00;95813.19;5034477;28;20265;-81
2022/08/16 01:10:22;;;;;;;2.90;1.60;;;;;;;14.73;100.00;95811.81;5031679;28;20284;-81
2022/08/16 01:12:49;;;;;;;4.27;1.50;;;;;;;14.79;100.00;95818.09;5027915;28;20242;-81
2022/08/16 01:15:17;;;;;;;2.67;1.53;;;;;;;14.77;100.00;95815.63;5031049;28;20211;-81
2022/08/16 01:17:47;;;;;;;4.80;1.87;;;;;;;14.79;100.00;95812.66;5026278;28;20199;-81
2022/08/16 01:20:16;;;;;;;3.03;1.50;;;;;;;14.83;100.00;95813.72;5031109;28;20329;-81
2022/08/16 01:22:52;;;;;;;3.23;1.80;;;;;;;14.87;100.00;95808.56;5036994;28;20211;-81
2022/08/16 01:25:26;;;;;;;1.87;1.50;;;;;;;14.88;100.00;95810.22;5035146;28;20206;-81
2022/08/16 01:27:58;;;;;;;2.30;1.50;;;;;;;14.87;100.00;95816.72;5038962;28;20224;-81
2022/08/16 01:30:28;;;;;;;1.60;1.47;;;;;;;14.79;100.00;95815.38;5024746;28;20237;-81
2022/08/16 01:32:59;;;;;;;2.90;1.67;;;;;;;14.83;100.00;95810.19;5024194;28;20242;-80
2022/08/16 01:35:30;;;;;;;1.70;1.57;;;;;;;14.79;100.00;95819.97;5027182;28;20213;-81
2022/08/16 01:38:13;;;;;;;1.90;1.70;;;;;;;14.86;100.00;95818.63;5029264;28;20287;-81
2022/08/16 01:40:42;;;;;;;2.67;1.63;;;;;;;14.85;100.00;95817.00;5037859;28;20281;-81
2022/08/16 01:43:09;;;;;;;1.93;1.70;;;;;;;14.78;100.00;95816.44;5015423;28;20223;-81
2022/08/16 01:45:37;;;;;;;1.73;1.60;;;;;;;14.75;100.00;95809.63;5009878;28;20211;-80
2022/08/16 01:48:04;;;;;;;2.67;1.57;;;;;;;14.78;100.00;95805.56;5020482;28;20191;-80
2022/08/16 01:50:32;;;;;;;2.27;1.60;;;;;;;14.80;100.00;95806.09;5022818;28;20199;-80
2022/08/16 01:53:00;;;;;;;3.43;1.73;;;;;;;14.77;100.00;95802.03;5020111;28;20219;-80
2022/08/16 01:55:44;;;;;;;5.17;2.27;;;;;;;14.79;100.00;95804.50;5026253;28;20214;-81
2022/08/16 01:58:12;;;;;;;2.03;1.77;;;;;;;14.78;100.00;95813.72;5015831;28;20269;-81
2022/08/16 02:00:40;;;;;;;2.10;1.70;;;;;;;14.75;100.00;95804.19;5016779;28;20200;-81
2022/08/16 02:03:07;;;;;;;2.07;1.73;;;;;;;14.80;100.00;95800.66;5017226;28;20227;-81
2022/08/16 02:05:34;;;;;;;2.43;1.73;;;;;;;14.78;100.00;95800.13;5016304;28;20254;-81
2022/08/16 02:08:03;;;;;;;2.23;1.57;;;;;;;14.76;100.00;95802.31;5020916;28;20210;-81
2022/08/16 02:10:31;;;;;;;3.07;2.33;;;;;;;14.72;100.00;95793.88;5022760;28;20211;-80
2022/08/16 02:13:00;;;;;;;1.90;1.67;;;;;;;14.73;100.00;95797.41;5015851;28;20226;-81
2022/08/16 02:15:30;;;;;;;2.10;1.90;;;;;;;14.73;100.00;95775.66;5018038;28;20214;-80
2022/08/16 02:17:59;;;;;;;2.03;1.83;;;;;;;14.74;100.00;95780.81;5022955;28;20198;-80
2022/08/16 02:20:27;;;;;;;6.13;1.90;;;;;;;14.71;100.00;95766.97;5016745;28;20207;-80
2022/08/16 02:22:55;;;;;;;4.37;1.80;;;;;;;14.71;100.00;95761.53;5011077;28;20210;-80
2022/08/16 02:25:23;;;;;;;2.03;1.83;;;;;;;14.73;100.00;95770.22;5024926;28;20211;-80
2022/08/16 02:27:51;;;;;;;2.53;1.83;;;;;;;14.72;100.00;95757.72;5012474;28;20275;-80
2022/08/16 02:30:24;;;;;;;4.20;1.93;;;;;;;14.79;100.00;95752.84;5020648;28;20203;-80
2022/08/16 02:32:51;;;;;;;2.90;1.97;;;;;;;14.73;100.00;95756.63;5021647;28;20227;-80
2022/08/16 02:35:18;;;;;;;1.80;1.70;;;;;;;14.72;100.00;95755.00;5010281;28;20290;-80
2022/08/16 02:37:46;;;;;;;3.13;1.87;;;;;;;14.74;100.00;95752.84;5021846;28;20195;-80
2022/08/16 02:40:15;;;;;;;3.10;1.93;;;;;;;14.74;100.00;95756.38;5012897;28;20302;-80
2022/08/16 02:42:43;;;;;;;3.80;1.77;;;;;;;14.70;100.00;95749.03;5018792;28;20270;-80
2022/08/16 02:45:11;;;;;;;2.43;1.77;;;;;;;14.70;100.00;95754.47;5011688;28;20199;-80
2022/08/16 02:47:40;;;;;;;4.90;2.43;;;;;;;14.64;100.00;95744.66;5015968;28;20223;-80
2022/08/16 02:50:08;;;;;;;3.50;1.80;;;;;;;14.66;100.00;95756.91;5016679;28;20199;-81
2022/08/16 02:52:35;;;;;;;1.70;1.60;;;;;;;14.60;100.00;95758.00;5018886;28;20282;-80
2022/08/16 02:55:07;;;;;;;3.30;1.90;;;;;;;14.66;100.00;95759.63;5017534;28;20214;-81
2022/08/16 02:57:35;;;;;;;3.80;1.80;;;;;;;14.59;100.00;95745.50;5024200;28;20319;-80
2022/08/16 03:00:08;;;;;;;2.70;2.00;;;;;;;14.58;100.00;95737.59;5014677;28;20202;-80
2022/08/16 03:02:40;;;;;;;3.67;2.00;;;;;;;14.65;100.00;95738.97;5019873;28;20238;-80
2022/08/16 03:05:14;;;;;;;3.13;1.90;;;;;;;14.70;100.00;95741.72;5020079;28;20214;-80
2022/08/16 03:07:42;;;;;;;2.70;1.93;;;;;;;14.72;100.00;95744.13;5018620;28;20218;-80
2022/08/16 03:10:12;;;;;;;2.43;2.10;;;;;;;14.76;100.00;95745.22;5019164;28;20209;-80
2022/08/16 03:12:44;;;;;;;2.70;1.93;;;;;;;14.82;100.00;95738.72;5018243;28;20309;-80
2022/08/16 03:15:14;;;;;;;3.17;2.07;;;;;;;14.71;100.00;95731.66;5025506;28;20249;-80
2022/08/16 03:17:44;;;;;;;3.30;2.30;;;;;;;14.68;100.00;95733.00;5010971;28;20294;-80
2022/08/16 03:20:14;;;;;;;4.10;2.30;;;;;;;14.64;100.00;95726.47;5013388;28;20211;-80
2022/08/16 03:22:41;;;;;;;2.70;2.00;;;;;;;14.56;100.00;95729.72;5036854;28;20209;-80
2022/08/16 03:25:14;;;;;;;2.40;2.17;;;;;;;14.53;100.00;95721.31;5022422;28;20230;-80
2022/08/16 03:27:49;;;;;;;3.07;2.13;;;;;;;14.54;100.00;95721.06;5013788;28;20218;-80
2022/08/16 03:30:19;;;;;;;2.93;2.10;;;;;;;14.56;100.00;95720.75;5011240;28;20225;-80
2022/08/16 03:32:52;;;;;;;2.20;2.00;;;;;;;14.54;100.00;95725.66;5020171;28;20219;-80
2022/08/16 03:35:24;;;;;;;5.03;2.20;;;;;;;14.55;100.00;95708.25;5029871;28;20234;-80
2022/08/16 03:37:56;;;;;;;3.20;2.10;;;;;;;14.56;100.00;95718.84;5014856;28;20200;-80
2022/08/16 03:40:25;;;;;;;3.13;2.13;;;;;;;14.60;100.00;95719.16;5013584;28;20226;-80
2022/08/16 03:42:52;;;;;;;2.20;2.00;;;;;;;14.59;100.00;95712.06;5018998;28;20210;-80
2022/08/16 03:45:20;;;;;;;4.53;3.10;;;;;;;14.51;100.00;95702.56;5010619;28;20196;-80
2022/08/16 03:47:49;;;;;;;2.97;2.77;;;;;;;14.51;100.00;95704.47;5020715;28;20202;-80
2022/08/16 03:50:18;;;;;;;2.63;2.30;;;;;;;14.56;100.00;95704.44;5013537;28;20222;-80
2022/08/16 03:52:45;;;;;;;2.20;2.00;;;;;;;14.63;100.00;95705.03;5012470;28;20242;-80
2022/08/16 03:55:15;;;;;;;2.30;1.90;;;;;;;14.54;100.00;95698.50;5016324;28;20230;-80
2022/08/16 03:57:43;;;;;;;2.13;1.90;;;;;;;14.56;100.00;95701.72;5009736;28;20254;-80
2022/08/16 04:00:14;;;;;;;3.17;2.00;;;;;;;14.57;100.00;95709.63;5010334;28;20203;-81
2022/08/16 04:02:44;;;;;;;3.03;2.10;;;;;;;14.62;100.00;95706.94;5010740;28;20270;-80
2022/08/16 04:05:18;;;;;;;4.23;1.80;;;;;;;14.64;100.00;95710.16;5010633;28;20203;-80
2022/08/16 04:07:46;;;;;;;3.37;2.07;;;;;;;14.63;100.00;95713.19;5023239;28;20218;-80
2022/08/16 04:10:15;;;;;;;3.63;2.37;;;;;;;14.59;100.00;95712.88;5018440;28;20210;-80
2022/08/16 04:12:44;;;;;;;3.40;2.47;;;;;;;14.56;100.00;95708.00;5008214;28;20230;-80
2022/08/16 04:15:14;;;;;;;2.40;2.00;;;;;;;14.56;100.00;95701.72;5012047;28;20207;-80
2022/08/16 04:17:47;;;;;;;2.27;2.07;;;;;;;14.59;100.00;95701.22;5014820;28;20278;-81
2022/08/16 04:20:16;;;;;;;3.87;2.30;;;;;;;14.59;100.00;95695.78;5015535;28;20225;-80
2022/08/16 04:22:45;;;;;;;5.83;2.10;;;;;;;14.51;100.00;95693.59;5022287;28;20257;-81
2022/08/16 04:25:12;;;;;;;2.63;2.43;;;;;;;14.48;100.00;95685.97;5018958;28;20204;-81
2022/08/16 04:27:40;;;;;;;3.20;2.17;;;;;;;14.47;100.00;95698.75;5011931;28;20204;-80
2022/08/16 04:30:11;;;;;;;2.73;2.40;;;;;;;14.47;100.00;95698.75;5012304;28;20251;-80
2022/08/16 04:32:43;;;;;;;3.53;2.50;;;;;;;14.44;100.00;95690.34;5016955;28;20299;-80
2022/08/16 04:35:15;;;;;;;2.90;2.60;;;;;;;14.41;100.00;95693.59;5017562;28;20203;-80
2022/08/16 04:37:45;;;;;;;3.80;2.20;;;;;;;14.38;100.00;95697.59;5015872;28;20218;-81
2022/08/16 04:40:38;;;;;;;2.20;2.00;;;;;;;14.37;100.00;95702.22;5015206;28;20362;-80
2022/08/16 04:43:06;;;;;;;2.87;2.17;;;;;;;14.33;100.00;95698.44;5021558;28;20208;-80
2022/08/16 04:45:34;;;;;;;2.80;2.30;;;;;;;14.39;100.00;95704.72;5020239;28;20207;-80
2022/08/16 04:48:03;;;;;;;2.40;2.17;;;;;;;14.34;100.00;95710.13;5020809;28;20219;-80
2022/08/16 04:50:38;;;;;;;2.83;2.13;;;;;;;14.35;100.00;95709.84;5012836;28;20218;-80
2022/08/16 04:53:13;;;;;;;2.30;2.10;;;;;;;14.33;100.00;95706.59;5008664;28;20286;-80
2022/08/16 04:55:44;;;;;;;5.03;2.33;;;;;;;14.37;100.00;95715.03;5017561;28;20263;-80
2022/08/16 04:58:12;;;;;;;4.13;2.20;;;;;;;14.34;100.00;95715.53;5012835;28;20234;-80
2022/08/16 05:00:40;;;;;;;2.73;2.13;;;;;;;14.35;100.00;95707.13;5014552;28;20212;-81
2022/08/16 05:03:14;;;;;;;3.77;2.33;;;;;;;14.36;100.00;95700.63;5017436;28;20215;-80
2022/08/16 05:05:45;;;;;;;3.30;2.13;;;;;;;14.36;100.00;95703.34;5026889;28;20327;-81
2022/08/16 05:08:15;;;;;;;2.50;2.30;;;;;;;14.40;100.00;95711.78;5014976;28;20206;-80
2022/08/16 05:10:45;;;;;;;3.03;1.90;;;;;;;14.38;100.00;95709.31;5010838;28;20207;-80
2022/08/16 05:13:12;;;;;;;3.07;2.33;;;;;;;14.48;100.00;95710.41;5017589;28;20231;-80
2022/08/16 05:15:39;;;;;;;4.93;2.53;;;;;;;14.48;100.00;95715.84;5011291;28;20298;-80
2022/08/16 05:18:07;;;;;;;2.40;2.20;;;;;;;14.49;100.00;95717.50;5017799;28;20254;-81
2022/08/16 05:20:42;;;;;;;4.83;2.17;;;;;;;14.55;100.00;95721.84;5013960;28;20206;-81
2022/08/16 05:23:10;;;;;;;5.43;2.13;;;;;;;14.57;100.00;95719.66;5014663;28;20195;-81
2022/08/16 05:25:39;;;;;;;2.47;2.00;;;;;;;14.47;100.00;95714.22;5017759;28;20214;-80
2022/08/16 05:28:09;;;;;;;2.40;2.20;;;;;;;14.45;100.00;95711.81;5020695;28;20297;-81
2022/08/16 05:30:38;;;;;;;3.60;3.07;;;;;;;14.47;100.00;95714.22;5014262;28;20207;-81
2022/08/16 05:33:13;;;;;;;2.30;2.10;;;;;;;14.47;100.00;95714.22;5020808;28;20306;-81
2022/08/16 05:35:41;;;;;;;3.20;2.30;;;;;;;14.52;100.00;95715.06;5021099;28;20300;-81
2022/08/16 05:38:12;;;;;;;3.30;2.13;;;;;;;14.51;100.00;95715.31;5028074;28;20330;-81
2022/08/16 05:40:40;;;;;;;5.10;2.70;;;;;;;14.50;100.00;95714.50;5015240;28;20211;-81
2022/08/16 05:43:08;;;;;;;3.53;2.30;;;;;;;14.54;100.00;95721.06;5017147;28;20207;-81
2022/08/16 05:45:36;;;;;;;3.50;2.40;;;;;;;14.58;100.00;95716.69;5014838;28;20504;-81
2022/08/16 05:48:05;;;;;;;3.63;2.50;;;;;;;14.61;100.00;95726.22;5012292;28;20222;-81
2022/08/16 05:50:42;;;;;;;3.13;2.30;;;;;;;14.65;100.00;95725.38;5032414;28;20202;-81
2022/08/16 05:53:09;;;;;;;2.83;2.53;;;;;;;14.63;100.00;95718.63;5021426;28;20305;-81
2022/08/16 05:55:43;;;;;;;2.43;2.20;;;;;;;14.66;100.00;95712.63;5017575;28;20207;-81
2022/08/16 05:58:10;;;;;;;4.73;2.33;;;;;;;14.60;100.00;95708.28;5016342;28;20191;-82
2022/08/16 06:00:37;;;;;;;4.07;2.30;;;;;;;14.58;100.00;95705.00;5022905;28;20364;-81
2022/08/16 06:03:04;;;;;;;4.63;2.47;;;;;;;14.58;100.00;95702.28;5011429;28;20199;-81
2022/08/16 06:05:52;;;;;;;3.53;2.50;;;;;;;14.59;100.00;95709.34;5016106;28;20242;-81
2022/08/16 06:08:19;;;;;;;2.47;2.20;;;;;;;14.56;100.00;95707.16;5014599;28;20207;-81
2022/08/16 06:10:49;;;;;;;4.97;2.50;;;;;;;14.54;100.00;95703.94;5014291;28;20207;-81
2022/08/16 06:13:16;;;;;;;3.53;2.53;;;;;;;14.60;100.00;95705.56;5023763;28;20226;-81
2022/08/16 06:15:44;;;;;;;2.90;2.60;;;;;;;14.59;100.00;95703.94;5011609;28;20204;-81
2022/08/16 06:18:11;;;;;;;3.63;2.53;;;;;;;14.59;100.00;95709.34;5021878;28;20206;-81
2022/08/16 06:20:38;;;;;;;4.97;2.60;;;;;;;14.49;100.00;95709.34;5014941;28;20196;-81
2022/08/16 06:23:26;;;;;;;4.93;3.00;;;;;;;14.41;100.00;95701.72;5022903;28;20217;-81
2022/08/16 06:26:01;;;;;;;5.37;2.70;;;;;;;14.42;100.00;95706.09;5014883;28;20218;-81
2022/08/16 06:28:33;;;;;;;5.47;2.70;;;;;;;14.41;100.00;95705.25;5016141;28;20207;-80
2022/08/16 06:31:00;;;;;;;4.83;2.83;;;;;;;14.42;100.00;95715.03;5020513;28;20226;-79
2022/08/16 06:33:28;;;;;;;4.87;3.07;;;;;;;14.41;100.00;95704.44;5010607;28;20234;-78
2022/08/16 06:35:56;;;;;;;4.77;3.33;;;;;;;14.42;100.00;95697.94;5010914;28;20207;-79
2022/08/16 06:38:23;;;;;;;3.50;2.90;;;;;;;14.38;100.00;95690.31;5024901;28;20260;-79
2022/08/16 06:40:51;;;;;;;4.33;3.30;;;;;;;14.43;100.00;95681.38;5020105;28;20214;-79
2022/08/16 06:43:20;;;;;;;3.33;2.80;;;;;;;14.46;100.00;95690.88;5017858;28;20215;-79
2022/08/16 06:45:50;;;;;;;4.07;3.53;;;;;;;14.50;100.00;95686.53;5021665;28;20253;-79
2022/08/16 06:48:25;;;;;;;3.20;2.90;;;;;;;14.56;100.00;95693.59;5023206;28;20206;-79
2022/08/16 06:50:52;;;;;;;3.70;3.23;;;;;;;14.56;100.00;95691.69;5010870;28;20301;-79
2022/08/16 06:53:21;;;;;;;4.33;2.93;;;;;;;14.60;100.00;95694.69;5012149;28;20311;-79
2022/08/16 06:56:00;;;;;;;3.53;2.60;;;;;;;14.57;100.00;95692.50;5018076;28;20227;-79
2022/08/16 06:58:40;;;;;;;3.13;2.57;;;;;;;14.60;100.00;95686.53;5022929;28;20352;-79
2022/08/16 07:01:11;;;;;;;2.93;2.60;;;;;;;14.66;100.00;95682.72;5015757;28;20211;-82
2022/08/16 07:03:38;;;;;;;4.10;2.40;;;;;;;14.65;100.00;95689.25;5016553;28;20292;-76
2022/08/16 07:06:08;;;;;;;4.77;3.13;;;;;;;14.65;100.00;95686.53;5015535;28;20217;-79
2022/08/16 07:08:41;;;;;;;3.10;2.70;;;;;;;14.66;100.00;95696.31;5022409;28;20208;-77
2022/08/16 07:11:10;;;;;;;3.93;2.80;;;;;;;14.68;100.00;95686.81;5018417;28;20281;-77
2022/08/16 07:13:37;;;;;;;4.33;3.00;;;;;;;14.69;100.00;95701.22;5010193;28;20305;-76
2022/08/16 07:16:10;;;;;;;3.77;3.20;;;;;;;14.72;100.00;95695.22;5011705;28;20214;-76
2022/08/16 07:18:38;;;;;;;3.20;2.90;;;;;;;14.80;100.00;95691.94;5018024;28;20221;-76
2022/08/16 07:21:06;;;;;;;3.17;2.77;;;;;;;14.79;100.00;95684.91;5021997;28;20199;-77
2022/08/16 07:23:33;;;;;;;3.80;2.73;;;;;;;14.84;100.00;95693.06;5021083;28;20199;-76
2022/08/16 07:26:01;;;;;;;3.93;2.97;;;;;;;14.94;100.00;95687.63;5015736;28;20207;-77
2022/08/16 07:28:28;;;;;;;4.40;2.80;;;;;;;14.94;100.00;95693.06;5014431;28;20228;-77
2022/08/16 07:30:56;;;;;;;5.93;2.90;;;;;;;14.96;100.00;95690.88;5017854;28;20326;-78
2022/08/16 07:33:31;;;;;;;3.70;2.93;;;;;;;14.97;100.00;95687.03;5018482;28;20223;-78
2022/08/16 07:36:00;;;;;;;4.13;2.97;;;;;;;15.02;100.00;95689.78;5023818;28;20200;-77
2022/08/16 07:38:28;;;;;;;7.50;2.67;;;;;;;15.00;100.00;95697.38;5011913;28;20343;-77
2022/08/16 07:40:57;;;;;;;5.93;2.83;;;;;;;15.11;100.00;95698.19;5020801;28;20210;-78
2022/08/16 07:43:25;;;;;;;4.23;2.60;;;;;;;15.34;100.00;95699.50;5023101;28;20206;-77
2022/08/16 07:45:53;;;;;;;3.20;2.90;;;;;;;15.69;100.00;95695.88;5014426;28;20367;-77
2022/08/16 07:48:21;;;;;;;5.47;2.97;;;;;;;16.13;100.00;95698.69;5019315;28;20203;-77
2022/08/16 07:50:54;;;;;;;3.00;2.70;;;;;;;16.48;100.00;95701.19;5010779;28;20231;-77
2022/08/16 07:53:22;;;;;;;4.10;2.43;;;;;;;16.61;100.00;95713.38;5022426;28;20220;-77
2022/08/16 07:55:50;;;;;;;3.77;2.47;;;;;;;16.77;100.00;95711.34;5023768;28;20226;-77
2022/08/16 07:58:27;;;;;;;2.87;2.60;;;;;;;16.90;100.00;95716.97;5009540;28;20206;-77
2022/08/16 08:00:54;;;;;;;3.50;2.30;;;;;;;17.12;100.00;95712.97;5019732;28;20211;-77
2022/08/16 08:03:22;;;;;;;3.10;2.80;;;;;;;17.36;100.00;95714.63;5017006;28;20206;-78
2022/08/16 08:05:49;;;;;;;2.90;2.60;;;;;;;17.53;100.00;95716.09;5023424;28;20207;-77
2022/08/16 08:08:18;;;;;;;4.30;3.30;;;;;;;17.76;100.00;95723.53;5025664;28;20202;-77
2022/08/16 08:10:45;;;;;;;3.67;2.57;;;;;;;18.04;100.00;95724.53;5015532;28;20226;-77
2022/08/16 08:13:14;;;;;;;3.57;2.20;;;;;;;18.35;100.00;95733.19;5020684;28;20231;-77
2022/08/16 08:15:42;;;;;;;4.63;2.80;;;;;;;18.49;100.00;95728.59;5017112;28;20213;-77
2022/08/16 08:18:09;;;;;;;4.43;2.60;;;;;;;18.74;100.00;95730.97;5012377;28;20237;-77
2022/08/16 08:20:37;;;;;;;3.93;2.50;;;;;;;18.77;100.00;95735.88;5023461;28;20187;-78
2022/08/16 08:23:07;;;;;;;2.77;2.57;;;;;;;18.91;100.00;95727.72;5014874;28;20298;-77
2022/08/16 08:25:42;;;;;;;2.80;2.60;;;;;;;18.67;100.00;95736.03;5013011;28;20211;-78
2022/08/16 08:28:09;;;;;;;3.73;3.30;;;;;;;18.93;100.00;95738.38;5023089;28;20214;-77
2022/08/16 08:30:37;;;;;;;4.90;3.37;;;;;;;19.27;100.00;95733.41;5010147;28;20199;-77
2022/08/16 08:33:04;;;;;;;5.10;2.67;;;;;;;19.53;100.00;95736.53;5014356;28;20235;-78
2022/08/16 08:35:39;;;;;;;6.30;3.07;;;;;;;19.63;100.00;95736.38;5010595;28;20228;-78
2022/08/16 08:38:09;;;;;;;3.63;2.87;;;;;;;19.83;100.00;95735.97;5017377;28;20207;-78
2022/08/16 08:40:43;;;;;;;6.80;4.05;;;;;;;20.13;100.00;95739.22;5016187;28;20215;-78
2022/08/16 08:43:11;;;;;;;3.47;3.13;;;;;;;20.46;100.00;95740.75;5029766;28;20204;-78
2022/08/16 08:45:40;;;;;;;2.70;2.50;;;;;;;20.76;100.00;95736.50;5013147;28;20210;-81
2022/08/16 08:48:07;;;;;;;5.70;3.15;;;;;;;20.95;100.00;95739.88;5040648;28;20204;-81
2022/08/16 08:50:35;;;;;;;3.05;2.75;;;;;;;21.22;100.00;95739.00;5022844;28;20207;-81
2022/08/16 08:53:02;;;;;;;3.90;3.00;;;;;;;21.45;100.00;95737.03;5021870;28;20284;-81
2022/08/16 08:55:30;;;;;;;4.13;3.20;;;;;;;21.66;100.00;95729.91;5016055;28;20207;-81
2022/08/16 08:57:59;;;;;;;3.10;2.90;;;;;;;21.85;99.08;95732.41;5018284;28;20318;-81
2022/08/16 09:00:38;;;;;;;6.65;2.85;;;;;;;22.05;91.92;95725.56;5015515;28;20214;-81
2022/08/16 09:03:06;;;;;;;4.00;2.90;;;;;;;22.28;98.11;95729.84;5027868;28;20614;-81
2022/08/16 09:05:37;;;;;;;4.38;2.80;;;;;;;22.26;95.41;95718.34;5013785;28;20210;-81
2022/08/16 09:08:07;;;;;;;3.35;2.80;;;;;;;22.42;90.95;95715.97;5021028;28;20209;-81
2022/08/16 09:10:44;;;;;;;4.60;3.10;;;;;;;22.54;92.54;95716.16;5022796;28;20231;-82
2022/08/16 09:13:13;;;;;;;4.78;3.00;;;;;;;22.74;89.87;95718.28;5020513;28;20273;-82
2022/08/16 09:15:47;;;;;;;4.80;3.00;;;;;;;22.93;82.62;95712.47;5024517;28;20205;-82
2022/08/16 09:18:16;;;;;;;3.63;2.75;;;;;;;22.98;78.95;95717.81;5022398;28;20203;-81
2022/08/16 09:20:44;;;;;;;4.45;2.50;;;;;;;23.07;80.09;95713.09;5017831;28;20208;-81
2022/08/16 09:23:12;;;;;;;4.53;3.30;;;;;;;22.99;77.89;95716.69;5027165;28;20310;-82
2022/08/16 09:25:44;;;;;;;3.30;2.90;;;;;;;23.06;76.68;95708.72;5017427;28;20212;-82
2022/08/16 09:28:16;;;;;;;4.35;3.15;;;;;;;23.23;79.09;95711.47;5018362;28;20229;-82
2022/08/16 09:30:52;;;;;;;3.58;2.85;;;;;;;23.36;77.44;95707.75;5017775;28;20234;-82
2022/08/16 09:33:19;;;;;;;4.32;2.95;;;;;;;23.44;74.44;95708.84;5025969;28;20220;-82
2022/08/16 09:35:48;;;;;;;3.40;2.75;;;;;;;23.40;77.56;95702.38;5017879;28;20195;-80
2022/08/16 09:38:15;;;;;;;4.03;2.85;;;;;;;23.29;74.62;95707.44;5029034;28;20214;-82
2022/08/16 09:40:43;;;;;;;3.15;2.85;;;;;;;23.28;74.46;95705.81;5019696;28;20214;-79
2022/08/16 09:43:11;;;;;;;4.38;3.00;;;;;;;23.24;76.49;95702.06;5024116;28;20207;-78
2022/08/16 09:45:42;;;;;;;4.85;3.05;;;;;;;23.40;75.92;95700.41;5027112;28;20265;-78
2022/08/16 09:48:11;;;;;;;5.97;2.83;;;;;;;23.58;73.91;95708.66;5016415;28;20345;-80
2022/08/16 09:50:38;;;;;;;3.75;2.75;;;;;;;23.62;74.78;95704.13;5015550;28;20274;-79
2022/08/16 09:53:08;;;;;;;3.45;2.78;;;;;;;23.67;75.50;95704.75;5028268;28;20278;-80
2022/08/16 09:55:35;;;;;;;3.00;2.70;;;;;;;23.78;74.76;95702.47;5026606;28;20280;-80
2022/08/16 09:58:03;;;;;;;6.07;3.20;;;;;;;23.80;75.24;95708.47;5018949;28;20227;-80
2022/08/16 10:00:30;;;;;;;3.20;2.90;;;;;;;23.90;73.55;95710.88;5028576;28;20203;-80
2022/08/16 10:02:58;;;;;;;2.70;2.50;;;;;;;24.12;68.84;95709.78;5011106;28;20211;-80
2022/08/16 10:05:26;;;;;;;3.20;2.90;;;;;;;24.29;68.49;95708.91;5019676;28;20207;-80
2022/08/16 10:07:53;;;;;;;2.70;2.50;;;;;;;24.48;68.83;95712.06;5022966;28;20207;-80
2022/08/16 10:10:22;;;;;;;3.63;2.88;;;;;;;24.67;67.27;95703.31;5022871;28;20203;-80
2022/08/16 10:15:35;;;;;;;3.08;2.85;;;;;;;25.02;63.32;95703.88;5019769;28;20234;-81
2022/08/16 10:18:07;;;;;;;3.13;2.55;;;;;;;25.13;63.65;95702.31;5012962;28;20217;-81
2022/08/16 10:20:38;;;;;;;2.90;2.60;;;;;;;25.24;63.62;95700.75;5028609;28;20195;-80
2022/08/16 10:23:07;;;;;;;3.15;2.85;;;;;;;25.17;64.63;95694.97;5026669;28;20210;-80
2022/08/16 10:25:35;;;;;;;4.38;2.78;;;;;;;25.39;64.24;95689.06;5016916;28;20203;-81
2022/08/16 10:28:03;;;;;;;5.70;3.20;;;;;;;25.58;62.50;95700.41;5022349;28;20243;-81
2022/08/16 10:30:30;;;;;;;3.05;2.75;;;;;;;25.69;63.42;95695.28;5025905;28;20199;-81
2022/08/16 10:32:57;;;;;;;3.67;3.00;;;;;;;25.66;61.26;95697.94;5012151;28;20215;-81
2022/08/16 10:35:26;;;;;;;3.53;3.15;;;;;;;25.70;61.12;95690.53;5011637;28;20259;-81
2022/08/16 10:37:53;;;;;;;5.65;3.45;;;;;;;25.77;61.88;95688.84;5027397;28;20210;-80
2022/08/16 10:40:21;;;;;;;3.70;3.28;;;;;;;25.74;64.82;95699.78;5024564;28;20210;-80
2022/08/16 10:42:49;;;;;;;4.22;2.88;;;;;;;25.88;62.43;95691.97;5019676;28;20309;-80
2022/08/16 10:45:16;;;;;;;4.05;3.17;;;;;;;25.94;62.03;95690.63;5013702;28;20198;-81
2022/08/16 10:47:44;;;;;;;5.53;3.58;;;;;;;26.00;62.14;95683.69;5018959;28;20231;-80
2022/08/16 10:50:12;;;;;;;4.03;2.90;;;;;;;26.06;62.65;95687.03;5019554;28;20207;-81
2022/08/16 10:52:41;;;;;;;3.22;3.00;;;;;;;26.10;61.20;95674.94;5016619;28;20208;-80
2022/08/16 10:55:11;;;;;;;5.50;3.10;;;;;;;26.23;60.19;95684.84;5016708;28;20229;-81
2022/08/16 10:57:38;;;;;;;4.72;3.42;;;;;;;26.30;59.07;95685.09;5018656;28;20241;-81
2022/08/16 11:00:11;;;;;;;3.20;2.90;;;;;;;26.39;60.42;95671.13;5024785;28;20203;-81
2022/08/16 11:02:39;;;;;;;3.33;2.78;;;;;;;26.48;61.37;95668.25;5039377;28;20203;-81
2022/08/16 11:05:10;;;;;;;3.65;3.30;;;;;;;26.52;60.10;95671.94;5019633;28;20214;-81
2022/08/16 11:07:38;;;;;;;4.70;3.13;;;;;;;26.53;59.89;95665.25;5010803;28;20218;-80
2022/08/16 11:10:08;;;;;;;4.22;3.40;;;;;;;26.57;59.88;95664.19;5023793;28;20203;-84
2022/08/16 11:12:35;;;;;;;4.35;3.15;;;;;;;26.64;62.23;95663.59;5012979;28;20265;-84
2022/08/16 11:15:04;;;;;;;4.13;3.60;;;;;;;26.74;61.10;95671.41;5019800;28;20226;-84
2022/08/16 11:17:31;;;;;;;4.18;3.03;;;;;;;26.90;59.32;95677.03;5019571;28;20225;-83
2022/08/16 11:19:58;;;;;;;3.67;3.00;;;;;;;27.05;59.41;95671.56;5021879;28;20443;-84
2022/08/16 11:22:25;;;;;;;3.75;3.45;;;;;;;27.20;58.66;95666.47;5024767;28;20215;-84
2022/08/16 11:24:52;;;;;;;5.53;3.20;;;;;;;27.28;58.52;95663.53;5025200;28;20203;-83
2022/08/16 11:27:22;;;;;;;4.13;3.00;;;;;;;27.44;57.25;95661.59;5022848;28;20211;-84
2022/08/16 11:29:52;;;;;;;3.97;3.22;;;;;;;27.47;57.23;95666.44;5020709;28;20226;-84
2022/08/16 11:32:19;;;;;;;5.28;3.10;;;;;;;27.58;57.77;95661.19;5024904;28;20239;-84
2022/08/16 11:34:46;;;;;;;4.53;3.50;;;;;;;27.59;56.68;95665.59;5020786;28;20231;-84
2022/08/16 11:37:13;;;;;;;3.50;3.20;;;;;;;27.67;58.59;95667.38;5027840;28;20199;-85
2022/08/16 11:39:40;;;;;;;4.65;3.70;;;;;;;27.72;56.68;95671.88;5017015;28;20268;-86
2022/08/16 11:42:07;;;;;;;4.03;3.60;;;;;;;27.77;56.49;95661.31;5022731;28;20210;-85
2022/08/16 11:44:35;;;;;;;6.65;3.30;;;;;;;27.67;54.96;95661.84;5026537;28;20196;-85
2022/08/16 11:47:02;;;;;;;3.85;3.20;;;;;;;27.76;56.04;95659.69;5021837;28;20203;-85